^^
Station Historical Data
Daily Summary for June 7, 2017 Units:  Metric    English   Both
« Previous Day
Next Day »
Daily Weekly Monthly Yearly Custom
  High: Low: Average:
Temperature: 17.3 °C 8.5 °C 13.5 °C
Dew Point: 7.6 °C 2.2 °C 5.4 °C
Humidity: 74% 37% 59%
Wind Speed: 33.8km/h 0km/h 13km/h
Wind Gust: 41.8km/h - -
Wind- - WSW
Pressure: 1022.9 hPa 1012.1 hPa -
Precipitation: 0 mm    
Historical Graphs
 
 
Tabular Data for June 7, 2017
Time Temperature Dew Point Pressure Wind Wind Speed Wind Gust Humidity Rainfall Rate (Hourly) solar Conditions
00:04 15.7 °C 5 °C 1013.4 hPa WSW 6.4 km/h 9.7 km/h 49% 0 mm 0.0 W/m2
00:14 15.5 °C 6 °C 1013.4 hPa WSW 17.7 km/h 22.5 km/h 53% 0 mm 0.0 W/m2
00:19 15.3 °C 6 °C 1013.4 hPa WSW 7.9 km/h 14.5 km/h 54% 0 mm 0.0 W/m2
00:29 15.3 °C 6 °C 1013.1 hPa WSW 11.1 km/h 16.1 km/h 54% 0 mm 0.0 W/m2
00:34 15.4 °C 6.1 °C 1013.1 hPa Calm   6.4 km/h 54% 0 mm 0.0 W/m2
00:39 15.4 °C 5.9 °C 1013.1 hPa Calm     53% 0 mm 0.0 W/m2
00:45 15.4 °C 5.9 °C 1013.4 hPa Calm     53% 0 mm 0.0 W/m2
00:50 15.4 °C 5.9 °C 1013.4 hPa Calm     53% 0 mm 0.0 W/m2
00:55 15.3 °C 5.8 °C 1013.1 hPa Calm     53% 0 mm 0.0 W/m2
01:00 15.1 °C 5.6 °C 1013.4 hPa Calm     53% 0 mm 0.0 W/m2
01:05 14.9 °C 5.7 °C 1013.4 hPa Calm     54% 0 mm 0.0 W/m2
01:10 14.9 °C 5.7 °C 1013.1 hPa Calm     54% 0 mm 0.0 W/m2
01:15 14.9 °C 5.7 °C 1013.1 hPa Calm     54% 0 mm 0.0 W/m2
01:20 14.8 °C 5.6 °C 1013.1 hPa Calm     54% 0 mm 0.0 W/m2
01:25 14.8 °C 5.8 °C 1013.1 hPa Calm     55% 0 mm 0.0 W/m2
01:31 14.7 °C 5.8 °C 1013.1 hPa Calm     55% 0 mm 0.0 W/m2
01:36 14.6 °C 5.9 °C 1013.1 hPa Calm     56% 0 mm 0.0 W/m2
01:41 14.6 °C 5.9 °C 1013.1 hPa Calm     56% 0 mm 0.0 W/m2
01:47 14.6 °C 6.2 °C 1012.8 hPa Calm     57% 0 mm 0.0 W/m2
01:52 14.6 °C 6.2 °C 1013.1 hPa Calm     57% 0 mm 0.0 W/m2
01:58 14.5 °C 6.3 °C 1012.8 hPa Calm     58% 0 mm 0.0 W/m2
02:08 14.7 °C 6.8 °C 1013.1 hPa Calm     59% 0 mm 0.0 W/m2
02:13 14.7 °C 6.8 °C 1012.8 hPa Calm     59% 0 mm 0.0 W/m2
02:17 14.8 °C 6.9 °C 1013.1 hPa Calm     59% 0 mm 0.0 W/m2
02:23 14.8 °C 6.9 °C 1013.1 hPa Calm     59% 0 mm 0.0 W/m2
02:54 14.9 °C 7 °C 1012.8 hPa Calm     59% 0 mm 0.0 W/m2
03:00 14.9 °C 7.2 °C 1012.8 hPa Calm     60% 0 mm 0.0 W/m2
03:05 15.1 °C 7.1 °C 1012.4 hPa Calm     59% 0 mm 0.0 W/m2
03:10 15.2 °C 7 °C 1012.4 hPa Calm     58% 0 mm 0.0 W/m2
03:20 15.3 °C 6.8 °C 1012.4 hPa Calm     57% 0 mm 0.0 W/m2
03:25 15.3 °C 6.3 °C 1012.4 hPa West 13 km/h 16.1 km/h 55% 0 mm 0.0 W/m2
03:35 15.4 °C 6.1 °C 1012.8 hPa West 6.4 km/h 11.3 km/h 54% 0 mm 0.0 W/m2
03:40 15.3 °C 6.8 °C 1012.8 hPa West 19.5 km/h 20.9 km/h 57% 0 mm 0.0 W/m2
03:45 15.3 °C 7.1 °C 1012.8 hPa WNW 7.9 km/h 16.1 km/h 58% 0 mm 0.0 W/m2
03:55 15.1 °C 7.6 °C 1012.8 hPa WNW 16.3 km/h 16.3 km/h 61% 0 mm 0.0 W/m2
04:00 14.9 °C 7.2 °C 1012.8 hPa West 16.3 km/h 22.5 km/h 60% 0 mm 0.0 W/m2
04:06 14.8 °C 6.9 °C 1012.4 hPa WSW 19.5 km/h 33.8 km/h 59% 0 mm 0.0 W/m2
04:11 14.8 °C 6.9 °C 1012.4 hPa West 20.9 km/h 27.4 km/h 59% 0 mm 0.0 W/m2
04:16 14.7 °C 6.8 °C 1012.4 hPa West 16.3 km/h 22.5 km/h 59% 0 mm 0.0 W/m2
04:25 14.6 °C 7.2 °C 1012.4 hPa WNW 20.9 km/h 29 km/h 61% 0 mm 0.0 W/m2
04:35 14.4 °C 7.2 °C 1012.1 hPa West 17.7 km/h 30.6 km/h 62% 0 mm 0.0 W/m2
04:40 14.4 °C 7 °C 1012.4 hPa WNW 17.7 km/h 37 km/h 61% 0 mm 0.0 W/m2
04:45 14.4 °C 7 °C 1012.4 hPa WNW 17.7 km/h 29 km/h 61% 0 mm 0.0 W/m2
04:50 14.3 °C 7.1 °C 1012.4 hPa West 16.3 km/h 33.8 km/h 62% 0 mm 0.0 W/m2
05:02 14.1 °C 6.7 °C 1012.8 hPa West 22.7 km/h 27.4 km/h 61% 0 mm 0.0 W/m2
05:11 13.8 °C 5.7 °C 1012.8 hPa West 19.5 km/h 29 km/h 58% 0 mm 0.0 W/m2
05:21 13.7 °C 5.3 °C 1012.8 hPa West 11.1 km/h 25.7 km/h 57% 0 mm 0.0 W/m2
05:30 13.6 °C 5.2 °C 1013.1 hPa WNW 22.7 km/h 29 km/h 57% 0 mm 0.0 W/m2
05:36 13.7 °C 5.3 °C 1013.1 hPa WNW 28.8 km/h 35.4 km/h 57% 0 mm 0.0 W/m2
05:46 13.7 °C 5.3 °C 1013.1 hPa West 30.6 km/h 33.8 km/h 57% 0 mm 0.0 W/m2
05:51 13.6 °C 5.5 °C 1013.1 hPa West 19.5 km/h 29 km/h 58% 0 mm 0.0 W/m2
05:56 13.6 °C 5.5 °C 1013.1 hPa West 20.9 km/h 29 km/h 58% 0 mm 0.0 W/m2
06:06 13.5 °C 5.6 °C 1013.4 hPa West 20.9 km/h 35.4 km/h 59% 0 mm 0.0 W/m2
06:11 13.5 °C 5.6 °C 1013.4 hPa West 22.7 km/h 38.6 km/h 59% 0 mm 0.0 W/m2
06:16 13.5 °C 5.4 °C 1013.4 hPa West 28.8 km/h 37 km/h 58% 0 mm 0.0 W/m2
06:26 13.5 °C 5.4 °C 1013.8 hPa West 24.1 km/h 35.4 km/h 58% 0 mm 0.0 W/m2
06:31 13.4 °C 5.3 °C 1014.1 hPa West 17.7 km/h 30.6 km/h 58% 0 mm 0.0 W/m2
06:36 13.4 °C 5.3 °C 1014.1 hPa West 22.7 km/h 37 km/h 58% 0 mm 0.0 W/m2
06:46 13.4 °C 5.3 °C 1014.4 hPa WNW 17.7 km/h 20.9 km/h 58% 0 mm 9.0 W/m2
06:51 13.4 °C 5.3 °C 1014.4 hPa West 16.3 km/h 19.3 km/h 58% 0 mm 16.0 W/m2
06:56 13.4 °C 5.5 °C 1014.4 hPa West 13 km/h 16.1 km/h 59% 0 mm 16.0 W/m2
07:01 13.4 °C 5.5 °C 1014.4 hPa West 9.7 km/h 16.1 km/h 59% 0 mm 16.0 W/m2
07:06 13.4 °C 5.8 °C 1014.4 hPa West 16.3 km/h 19.3 km/h 60% 0 mm 18.0 W/m2
07:11 13.4 °C 5.8 °C 1014.8 hPa West 16.3 km/h 22.5 km/h 60% 0 mm 33.0 W/m2
07:22 13.6 °C 6.2 °C 1014.8 hPa West 13 km/h 30.6 km/h 61% 0 mm 35.0 W/m2
07:42 13.9 °C 6.5 °C 1015.1 hPa West 19.5 km/h 32.2 km/h 61% 0 mm 70.0 W/m2
07:53 14 °C 6.1 °C 1015.5 hPa WNW 17.7 km/h 29 km/h 59% 0 mm 199.0 W/m2
07:58 14.2 °C 6.1 °C 1015.5 hPa WNW 11.1 km/h 29 km/h 58% 0 mm 213.0 W/m2
08:07 14.3 °C 5.9 °C 1015.5 hPa WNW 17.7 km/h 22.5 km/h 57% 0 mm 283.0 W/m2
08:17 14.3 °C 5.6 °C 1015.8 hPa WNW 20.9 km/h 27.4 km/h 56% 0 mm 148.0 W/m2
08:22 14.5 °C 5.8 °C 1015.8 hPa WNW 20.9 km/h 32.2 km/h 56% 0 mm 304.0 W/m2
08:32 14.8 °C 5.8 °C 1016.1 hPa WNW 16.3 km/h 20.9 km/h 55% 0 mm 171.0 W/m2
08:42 14.9 °C 5.7 °C 1016.1 hPa WNW 11.1 km/h 17.7 km/h 54% 0 mm 380.0 W/m2
08:47 15.1 °C 5.3 °C 1016.5 hPa West 20.9 km/h 27.4 km/h 52% 0 mm 338.0 W/m2
08:52 15.2 °C 4.8 °C 1016.5 hPa WNW 19.5 km/h 30.6 km/h 50% 0 mm 359.0 W/m2
08:57 15.3 °C 4.6 °C 1016.8 hPa WNW 17.7 km/h 30.6 km/h 49% 0 mm 438.0 W/m2
09:07 15.3 °C 4.9 °C 1016.8 hPa West 11.1 km/h 22.5 km/h 50% 0 mm 550.0 W/m2
09:12 15.6 °C 4.6 °C 1016.8 hPa West 24.1 km/h 32.2 km/h 48% 0 mm 624.0 W/m2
09:22 15.7 °C 4.7 °C 1016.8 hPa West 27.4 km/h 33.8 km/h 48% 0 mm 308.0 W/m2
09:27 15.5 °C 5.1 °C 1016.8 hPa West 27.4 km/h 35.4 km/h 50% 0 mm 209.0 W/m2
09:37 15.3 °C 5.8 °C 1017.2 hPa West 20.9 km/h 27.4 km/h 53% 0 mm 471.0 W/m2
10:10 15.5 °C 5.4 °C 1017.2 hPa West 19.5 km/h 27.4 km/h 51% 0 mm 587.0 W/m2
10:21 15.8 °C 3.9 °C 1017.5 hPa West 25.9 km/h 32.2 km/h 45% 0 mm 97.0 W/m2
10:32 16.1 °C 3.5 °C 1017.8 hPa West 28.8 km/h 41.8 km/h 43% 0 mm 561.0 W/m2
10:47 16.1 °C 3.5 °C 1017.8 hPa West 33.8 km/h 37 km/h 43% 0 mm 570.0 W/m2
11:12 16.1 °C 3.2 °C 1017.5 hPa West 22.7 km/h 29 km/h 42% 0 mm 587.0 W/m2
11:20 16.3 °C 3.7 °C 1017.5 hPa WSW 19.5 km/h 27.4 km/h 43% 0 mm 598.0 W/m2
15:09 17.3 °C 2.5 °C 1017.2 hPa West 20.9 km/h 32.2 km/h 37% 0 mm 176.0 W/m2
15:24 17.1 °C 2.3 °C 1017.5 hPa WSW 19.5 km/h 30.6 km/h 37% 0 mm 255.0 W/m2
15:35 17 °C 2.2 °C 1017.8 hPa West 11.1 km/h 29 km/h 37% 0 mm 223.0 W/m2
16:05 16.6 °C 2.6 °C 1018.2 hPa WSW 32 km/h 32.2 km/h 39% 0 mm 116.0 W/m2
16:17 16.1 °C 2.8 °C 1018.5 hPa WSW 13 km/h 27.4 km/h 41% 0 mm 79.0 W/m2
16:28 15.9 °C 3.3 °C 1018.5 hPa WSW 14.3 km/h 30.6 km/h 43% 0 mm 40.0 W/m2
16:37 14.7 °C 6.5 °C 1018.8 hPa SSW 19.5 km/h 24.1 km/h 58% 0 mm 21.0 W/m2
16:50 13.6 °C 6.7 °C 1019.2 hPa SSW 30.6 km/h 30.6 km/h 63% 0 mm 9.0 W/m2
17:00 12.8 °C 6.8 °C 1019.5 hPa SSW 24.1 km/h 29 km/h 67% 0 mm 5.0 W/m2
17:05 12.4 °C 6.9 °C 1019.5 hPa South 24.1 km/h 24.1 km/h 69% 0 mm 0.0 W/m2
17:16 11.8 °C 6.9 °C 1019.9 hPa SSW 20.9 km/h 24.1 km/h 72% 0 mm 0.0 W/m2
17:21 11.6 °C 6.7 °C 1019.9 hPa SSW 17.7 km/h 20.9 km/h 72% 0 mm 0.0 W/m2
17:26 11.5 °C 6.8 °C 1019.9 hPa SSW 20.9 km/h 25.7 km/h 73% 0 mm 0.0 W/m2
17:31 11.3 °C 6.8 °C 1020.2 hPa SSW 17.7 km/h 25.7 km/h 74% 0 mm 0.0 W/m2
17:36 11.3 °C 6.8 °C 1020.2 hPa SSW 13 km/h 19.3 km/h 74% 0 mm 0.0 W/m2
17:49 11.2 °C 6.7 °C 1020.5 hPa SSW 13 km/h 17.7 km/h 74% 0 mm 0.0 W/m2
18:16 11.2 °C 6.5 °C 1020.2 hPa SSW 4.7 km/h 8 km/h 73% 0 mm 0.0 W/m2
18:47 10.7 °C 5.9 °C 1020.5 hPa Calm     72% 0 mm 0.0 W/m2
19:17 10 °C 5.4 °C 1020.9 hPa Calm     73% 0 mm 0.0 W/m2
19:48 10 °C 5.4 °C 1021.2 hPa Calm     73% 0 mm 0.0 W/m2
20:13 10 °C 5.4 °C 1021.6 hPa Calm     73% 0 mm 0.0 W/m2
20:24 10.1 °C 5.5 °C 1021.6 hPa Calm     73% 0 mm 0.0 W/m2
20:49 10.3 °C 4.9 °C 1021.9 hPa SSW 9.7 km/h 11.3 km/h 69% 0 mm 0.0 W/m2
20:59 10.1 °C 4.7 °C 1022.2 hPa SSW 9.7 km/h 11.3 km/h 69% 0 mm 0.0 W/m2
21:10 10.2 °C 4.8 °C 1022.2 hPa South 9.7 km/h 16.1 km/h 69% 0 mm 0.0 W/m2
21:21 10.2 °C 4.8 °C 1022.2 hPa SSW 9.7 km/h 12.9 km/h 69% 0 mm 0.0 W/m2
21:42 10.2 °C 4.3 °C 1022.9 hPa South 11.1 km/h 19.3 km/h 67% 0 mm 0.0 W/m2
21:51 10.2 °C 4.3 °C 1022.9 hPa South 14.3 km/h 19.3 km/h 67% 0 mm 0.0 W/m2
22:01 10.1 °C 4.2 °C 1022.9 hPa SSW 14.3 km/h 19.3 km/h 67% 0 mm 0.0 W/m2
22:06 10.1 °C 4.2 °C 1022.9 hPa South 9.7 km/h 16.1 km/h 67% 0 mm 0.0 W/m2
22:11 10.1 °C 4 °C 1022.9 hPa South 9.7 km/h 12.9 km/h 66% 0 mm 0.0 W/m2
22:17 10 °C 3.9 °C 1022.9 hPa South 11.1 km/h 14.5 km/h 66% 0 mm 0.0 W/m2
22:22 9.9 °C 3.8 °C 1022.9 hPa South 9.7 km/h 12.9 km/h 66% 0 mm 0.0 W/m2
22:32 9.8 °C 3.7 °C 1022.9 hPa SSW 14.3 km/h 17.7 km/h 66% 0 mm 0.0 W/m2
22:42 9.8 °C 4.2 °C 1022.9 hPa South 13 km/h 16.1 km/h 68% 0 mm 0.0 W/m2
22:47 9.7 °C 3.9 °C 1022.9 hPa SSW 13 km/h 17.7 km/h 67% 0 mm 0.0 W/m2
22:57 9.7 °C 3.9 °C 1022.9 hPa SSW 13 km/h 16.1 km/h 67% 0 mm 0.0 W/m2
23:02 9.6 °C 3.8 °C 1022.9 hPa SSW 6.4 km/h 17.7 km/h 67% 0 mm 0.0 W/m2
23:07 9.4 °C 3.6 °C 1022.9 hPa SSW 7.9 km/h 14.5 km/h 67% 0 mm 0.0 W/m2
23:12 9.4 °C 3.6 °C 1022.9 hPa SSW 11.1 km/h 14.5 km/h 67% 0 mm 0.0 W/m2
23:22 9.2 °C 3.4 °C 1022.9 hPa SSW 7.9 km/h 14.5 km/h 67% 0 mm 0.0 W/m2
23:32 9.1 °C 3.1 °C 1022.9 hPa SSW 11.1 km/h 16.1 km/h 66% 0 mm 0.0 W/m2
23:42 8.8 °C 2.8 °C 1022.9 hPa South 14.3 km/h 16.1 km/h 66% 0 mm 0.0 W/m2
23:47 8.7 °C 2.7 °C 1022.9 hPa South 17.7 km/h 19.3 km/h 66% 0 mm 0.0 W/m2
23:52 8.6 °C 2.6 °C 1022.9 hPa South 11.1 km/h 16.1 km/h 66% 0 mm 0.0 W/m2
23:57 8.5 °C 2.5 °C 1022.9 hPa South 13 km/h 16.1 km/h 66% 0 mm 0.0 W/m2
Canyon Roadhouse, Fishriver Canyon, Namibia
Compliments of Weather Underground - 2.25 mb